Terminal Aerodrome Forecast
Issued by NWS

Home | Current Version | Previous Version | Text Only | Print | Product List | Glossary On
Versions: 1 2 3 4 5 6 7 8 9 10 11 12 13 14 15 16 17 18 19 20 21 22 23 24 25 26 27 28 29 30 31 32 33 34 35
000
FTUS41 KBOX 270341 AAC
TAFFMH
TAF AMD
KFMH 270341Z 2704/2724 02022G40KT 2SM RASN BR BKN007 OVC012
     FM270600 35016G40KT 4SM -SHSN BR OVC012
     FM270900 31014G32KT P6SM BKN025
     FM271200 31011G19KT P6SM BKN050
     FM271500 31009KT P6SM BKN025
     FM272100 32005KT P6SM BKN025=

USA.gov is the U.S. government's official web portal to all federal, state and local government web resources and services.